Time;durP1;ratioP1;P1;durP2;ratioP2;P2;SDS_P1;SDS_P2;PMS_P1;PMS_P2;Temp;Humidity;BMP_temperature;BMP_pressure;BME280_temperature;BME280_humidity;BME280_pressure;Samples;Min_cycle;Max_cycle;Signal;HPM_P1;HPM_P2
2021/07/04 00:00:23;;;;;;;;;28.60;25.60;;;;;23.47;53.34;98436.53;6145996;28;97035;-66
2021/07/04 00:03:26;;;;;;;;;27.80;26.40;;;;;23.46;53.28;98440.41;6144398;28;99211;-66
2021/07/04 00:06:29;;;;;;;;;29.00;27.00;;;;;23.44;53.19;98443.47;6138833;28;97548;-65
2021/07/04 00:09:33;;;;;;;;;26.60;23.00;;;;;23.45;52.76;98438.81;6141516;28;97719;-66
2021/07/04 00:12:36;;;;;;;;;28.00;26.50;;;;;23.45;53.02;98436.88;6141255;28;99566;-66
2021/07/04 00:15:43;;;;;;;;;27.60;26.00;;;;;23.43;52.82;98436.34;6156832;28;97147;-66
2021/07/04 00:18:46;;;;;;;;;30.00;27.00;;;;;23.47;52.78;98431.03;6163898;28;97224;-67
2021/07/04 00:21:49;;;;;;;;;27.00;26.00;;;;;23.50;52.51;98435.94;6153019;28;96616;-65
2021/07/04 00:24:52;;;;;;;;;27.40;25.80;;;;;23.53;52.39;98435.28;6136907;28;97363;-65
2021/07/04 00:27:57;;;;;;;;;27.75;25.75;;;;;23.53;52.03;98435.28;6143148;28;97519;-65
2021/07/04 00:31:02;;;;;;;;;26.40;25.00;;;;;23.56;51.99;98434.63;6149113;28;97495;-66
2021/07/04 00:34:06;;;;;;;;;26.40;25.00;;;;;23.58;51.79;98432.38;6154890;28;97448;-66
2021/07/04 00:37:10;;;;;;;;;25.40;22.20;;;;;23.61;51.68;98429.00;6155667;28;97413;-66
2021/07/04 00:40:15;;;;;;;;;26.00;24.00;;;;;23.57;51.88;98428.00;6163667;28;97166;-66
2021/07/04 00:43:18;;;;;;;;;29.40;27.00;;;;;23.58;51.71;98426.88;6146760;28;97644;-66
2021/07/04 00:46:24;;;;;;;;;24.25;23.25;;;;;23.53;51.66;98419.59;6145885;28;97555;-65
2021/07/04 00:49:27;;;;;;;;;27.00;24.60;;;;;23.51;51.70;98415.50;6146389;28;97556;-66
2021/07/04 00:52:34;;;;;;;;;30.40;26.80;;;;;23.47;51.91;98409.03;6129012;28;97932;-67
2021/07/04 00:55:38;;;;;;;;;25.00;23.00;;;;;23.37;51.94;98414.78;6126312;28;99558;-67
2021/07/04 00:58:46;;;;;;;;;30.60;27.00;;;;;23.28;52.13;98412.81;6129389;28;97227;-63
2021/07/04 01:01:52;;;;;;;;;24.80;23.80;;;;;23.22;52.26;98410.50;6160046;28;96998;-67
2021/07/04 01:04:57;;;;;;;;;25.00;23.00;;;;;23.17;51.69;98416.13;6141959;28;97555;-67
2021/07/04 01:08:04;;;;;;;;;29.20;25.80;;;;;23.14;52.14;98417.59;6144661;28;96765;-67
2021/07/04 01:11:08;;;;;;;;;30.00;26.00;;;;;22.89;51.85;98385.25;6145890;28;96616;-66
2021/07/04 01:14:11;;;;;;;;;26.40;24.00;;;;;23.00;51.82;98416.84;6157473;28;97535;-67
2021/07/04 01:17:16;;;;;;;;;29.20;25.20;;;;;22.85;52.42;98414.47;6145025;28;97079;-66
2021/07/04 01:20:23;;;;;;;;;25.60;24.60;;;;;22.88;52.16;98413.84;6145486;28;97005;-68
2021/07/04 01:23:28;;;;;;;;;26.00;25.00;;;;;22.91;52.58;98416.00;6144007;28;96814;-65
2021/07/04 01:26:33;;;;;;;;;28.40;25.00;;;;;22.88;52.24;98411.09;6162498;28;96518;-64
2021/07/04 01:29:37;;;;;;;;;27.40;24.40;;;;;22.86;52.39;98413.38;6145182;28;96475;-66
2021/07/04 01:32:41;;;;;;;;;26.00;24.20;;;;;22.86;52.02;98410.63;6145199;28;97054;-67
2021/07/04 01:35:46;;;;;;;;;27.50;26.50;;;;;22.82;52.28;98415.91;6129542;28;96777;-66
2021/07/04 01:38:51;;;;;;;;;28.00;24.20;;;;;22.79;52.35;98411.06;6143651;28;97449;-66
2021/07/04 01:41:55;;;;;;;;;26.75;25.75;;;;;22.74;52.76;98415.84;6144985;28;96928;-66
2021/07/04 01:45:02;;;;;;;;;26.40;24.40;;;;;22.73;52.65;98409.53;6127054;28;97918;-66
2021/07/04 01:48:07;;;;;;;;;30.40;26.80;;;;;22.71;52.85;98419.25;6136515;28;97494;-65
2021/07/04 01:51:16;;;;;;;;;28.00;25.00;;;;;22.61;52.90;98408.47;6145307;28;97176;-66
2021/07/04 01:54:21;;;;;;;;;28.40;26.80;;;;;22.60;52.94;98407.66;6161464;28;96475;-66
2021/07/04 01:57:25;;;;;;;;;27.00;24.75;;;;;22.52;53.35;98407.59;6144979;28;96604;-66
2021/07/04 02:00:36;;;;;;;;;28.00;26.00;;;;;22.53;53.38;98411.97;6127680;28;97292;-64
2021/07/04 02:03:43;;;;;;;;;28.20;25.00;;;;;22.48;53.46;98409.34;6156810;28;97433;-65
2021/07/04 02:06:51;;;;;;;;;26.00;22.80;;;;;22.40;53.30;98410.88;6144770;28;97351;-65
2021/07/04 02:09:55;;;;;;;;;27.40;24.80;;;;;22.40;52.88;98411.69;6158875;28;97490;-67
2021/07/04 02:13:09;;;;;;;;;24.60;23.40;;;;;22.38;53.06;98413.91;6139485;28;97432;-65
2021/07/04 02:16:16;;;;;;;;;28.00;26.00;;;;;22.38;52.33;98415.88;6131957;28;97231;-67
2021/07/04 02:19:38;;;;;;;;;29.00;26.40;;;;;22.30;52.65;98411.09;6146878;28;97643;-66
2021/07/04 02:22:59;;;;;;;;;28.50;24.50;;;;;22.31;52.61;98415.47;6142204;28;96969;-64
2021/07/04 02:26:19;;;;;;;;;25.00;24.00;;;;;22.29;52.56;98425.94;6160814;28;96527;-66
2021/07/04 02:29:26;;;;;;;;;26.40;23.40;;;;;22.23;52.43;98425.28;6164903;28;96518;-67
2021/07/04 02:32:30;;;;;;;;;27.00;25.00;;;;;22.18;52.70;98430.06;6140520;28;96672;-66
2021/07/04 02:35:39;;;;;;;;;26.00;23.33;;;;;22.16;52.34;98429.53;6145516;28;96750;-66
2021/07/04 02:38:44;;;;;;;;;25.00;24.00;;;;;22.11;52.66;98427.72;6155122;28;97179;-65
2021/07/04 02:41:49;;;;;;;;;26.60;24.00;;;;;22.10;52.85;98425.28;6141487;28;97469;-65
2021/07/04 02:44:53;;;;;;;;;28.40;24.20;;;;;21.94;53.03;98431.09;6130847;28;97471;-64
2021/07/04 02:47:59;;;;;;;;;24.00;23.00;;;;;22.05;52.60;98434.44;6139975;28;96640;-64
2021/07/04 02:51:04;;;;;;;;;25.00;22.20;;;;;21.99;52.81;98443.94;6144070;28;97074;-65
2021/07/04 02:54:09;;;;;;;;;24.00;21.60;;;;;21.94;52.79;98439.31;6132144;28;97516;-65
2021/07/04 02:57:32;;;;;;;;;27.20;24.00;;;;;21.88;53.37;98443.28;6139046;28;97247;-66
2021/07/04 03:00:41;;;;;;;;;25.00;24.00;;;;;21.89;53.23;98444.09;6139320;28;97384;-64
2021/07/04 03:03:46;;;;;;;;;25.80;23.40;;;;;21.89;53.22;98444.88;6140584;28;97410;-64
2021/07/04 03:06:49;;;;;;;;;25.00;23.00;;;;;21.82;53.30;98440.94;6152739;28;96721;-64
2021/07/04 03:09:52;;;;;;;;;25.40;24.40;;;;;21.72;53.01;98443.88;6139077;28;99918;-65
2021/07/04 03:13:01;;;;;;;;;26.50;22.75;;;;;21.77;53.13;98450.09;6139638;28;97446;-64
2021/07/04 03:16:05;;;;;;;;;25.50;22.00;;;;;21.60;53.24;98436.16;6138791;28;96800;-64
2021/07/04 03:19:09;;;;;;;;;26.00;24.50;;;;;21.65;53.19;98451.72;6137700;28;97384;-65
2021/07/04 03:22:12;;;;;;;;;26.00;23.00;;;;;21.66;53.47;98453.31;6140455;28;96676;-64
2021/07/04 03:25:16;;;;;;;;;25.40;24.00;;;;;21.63;53.55;98448.47;6140429;28;97106;-64
2021/07/04 03:28:23;;;;;;;;;25.00;23.00;;;;;21.56;53.28;98452.41;6126146;28;97327;-64
2021/07/04 03:31:27;;;;;;;;;23.75;21.75;;;;;21.63;53.53;98459.44;6135252;28;97560;-64
2021/07/04 03:34:31;;;;;;;;;25.00;22.00;;;;;21.59;53.51;98451.00;6138756;28;97192;-65
2021/07/04 03:37:38;;;;;;;;;25.60;22.60;;;;;21.58;53.49;98449.38;6140430;28;97414;-65
2021/07/04 03:40:43;;;;;;;;;28.60;25.00;;;;;21.55;53.94;98459.00;6145373;28;97447;-65
2021/07/04 03:44:04;;;;;;;;;25.20;24.60;;;;;21.54;53.52;98462.91;6140232;28;96564;-65
2021/07/04 03:47:08;;;;;;;;;24.50;22.00;;;;;21.55;53.54;98459.00;6140631;28;96705;-65
2021/07/04 03:50:13;;;;;;;;;26.00;22.00;;;;;21.55;53.49;98469.97;6138300;28;99584;-64
2021/07/04 03:53:17;;;;;;;;;25.60;22.40;;;;;21.55;53.63;98469.97;6140542;28;97576;-66
2021/07/04 03:56:23;;;;;;;;;23.20;22.80;;;;;21.59;53.58;98476.50;6126991;28;96671;-66
2021/07/04 03:59:31;;;;;;;;;26.80;24.80;;;;;21.79;53.19;98475.31;6156368;28;98042;-65
2021/07/04 04:02:34;;;;;;;;;25.75;22.50;;;;;21.90;53.33;98482.19;6135962;28;97498;-67
2021/07/04 04:05:37;;;;;;;;;23.80;20.40;;;;;22.01;52.62;98485.59;6137718;28;97231;-66
2021/07/04 04:08:44;;;;;;;;;25.00;22.33;;;;;22.15;52.68;98480.91;6136102;28;98486;-66
2021/07/04 04:11:53;;;;;;;;;22.50;20.00;;;;;22.17;52.29;98480.59;6115745;28;97460;-66
2021/07/04 04:15:12;;;;;;;;;20.75;19.75;;;;;22.21;52.23;98479.69;6137548;28;96538;-66
2021/07/04 04:18:20;;;;;;;;;23.50;21.50;;;;;22.28;52.52;98479.25;6149610;28;97261;-66
2021/07/04 04:21:25;;;;;;;;;22.00;20.80;;;;;22.25;52.67;98485.34;6151733;28;96940;-66
2021/07/04 04:24:34;;;;;;;;;23.00;21.00;;;;;22.30;52.18;98485.25;6133817;28;98281;-67
2021/07/04 04:27:37;;;;;;;;;21.00;20.00;;;;;22.32;52.54;98485.75;6135753;28;97519;-66
2021/07/04 04:30:44;;;;;;;;;25.75;23.75;;;;;22.36;52.14;98490.34;6137922;28;97495;-66
2021/07/04 04:33:51;;;;;;;;;25.60;23.80;;;;;22.38;52.17;98485.31;6141223;28;96737;-66
2021/07/04 04:36:55;;;;;;;;;24.60;22.20;;;;;22.38;52.44;98476.31;6159191;28;97516;-66
2021/07/04 04:39:58;;;;;;;;;21.00;20.00;;;;;22.35;52.32;98482.38;6162749;28;96908;-66
2021/07/04 04:43:02;;;;;;;;;23.80;21.40;;;;;22.33;52.67;98482.69;6157938;28;97474;-66
2021/07/04 04:46:06;;;;;;;;;23.00;22.00;;;;;22.26;52.45;98482.31;6124052;28;97919;-66
2021/07/04 04:49:10;;;;;;;;;28.00;25.00;;;;;22.36;52.55;98484.84;6163174;28;96979;-67
2021/07/04 04:52:13;;;;;;;;;23.25;22.25;;;;;22.22;52.81;98477.75;6154954;28;96789;-66
2021/07/04 04:55:16;;;;;;;;;25.00;23.00;;;;;22.29;52.89;98478.94;6155048;28;97464;-67
2021/07/04 04:58:19;;;;;;;;;28.00;25.60;;;;;22.25;53.23;98474.38;6158428;28;97449;-66
2021/07/04 05:01:26;;;;;;;;;25.00;24.00;;;;;22.26;53.43;98474.06;6158246;28;97654;-64
2021/07/04 05:04:29;;;;;;;;;24.00;22.00;;;;;22.14;53.30;98475.72;6151891;28;96806;-65
2021/07/04 05:07:32;;;;;;;;;27.00;25.00;;;;;22.18;53.62;98480.31;6143923;28;97867;-65
2021/07/04 05:10:35;;;;;;;;;26.00;25.00;;;;;22.11;53.54;98479.06;6141585;28;99681;-65
2021/07/04 05:13:39;;;;;;;;;25.60;24.40;;;;;22.12;53.46;98477.97;6145133;28;97514;-65
2021/07/04 05:16:44;;;;;;;;;26.00;23.20;;;;;22.16;53.37;98476.22;6163601;28;97041;-64
2021/07/04 05:19:48;;;;;;;;;26.75;24.00;;;;;22.10;53.67;98483.75;6162856;28;97509;-65
2021/07/04 05:22:51;;;;;;;;;22.75;21.00;;;;;22.13;53.69;98482.34;6156633;28;97441;-65
2021/07/04 05:25:57;;;;;;;;;26.60;24.00;;;;;22.03;53.95;98486.91;6156984;28;96975;-65
2021/07/04 05:29:01;;;;;;;;;28.80;23.40;;;;;22.04;53.88;98477.53;6163775;28;97129;-65
2021/07/04 05:32:06;;;;;;;;;27.60;25.60;;;;;21.96;54.11;98481.00;6162847;28;97564;-65
2021/07/04 05:35:11;;;;;;;;;27.00;25.00;;;;;22.03;53.80;98480.63;6138149;28;97159;-65
2021/07/04 05:38:18;;;;;;;;;22.60;22.00;;;;;22.10;53.62;98480.19;6160194;28;97001;-65
2021/07/04 05:41:22;;;;;;;;;26.00;25.00;;;;;22.17;53.64;98466.88;6161791;28;97525;-65
2021/07/04 05:44:25;;;;;;;;;25.00;23.00;;;;;22.23;53.28;98466.47;6135723;28;97835;-65
2021/07/04 05:47:30;;;;;;;;;27.00;24.40;;;;;22.31;53.55;98470.41;6153030;28;96522;-66
2021/07/04 05:50:33;;;;;;;;;26.40;23.60;;;;;22.39;53.26;98464.97;6163233;28;96577;-64
2021/07/04 05:53:36;;;;;;;;;29.00;27.00;;;;;22.51;53.00;98461.72;6161749;28;98760;-64
2021/07/04 05:56:40;;;;;;;;;23.00;22.00;;;;;22.59;53.14;98460.16;6161225;28;96734;-65
2021/07/04 05:59:43;;;;;;;;;25.00;23.00;;;;;22.75;52.86;98466.94;6160839;28;97238;-65
2021/07/04 06:02:47;;;;;;;;;27.00;24.00;;;;;22.84;52.89;98471.38;6153223;28;97163;-66
2021/07/04 06:05:50;;;;;;;;;28.60;26.40;;;;;22.94;52.74;98466.75;6162959;28;97461;-64
2021/07/04 06:08:54;;;;;;;;;24.50;22.50;;;;;23.03;52.26;98465.69;6157468;28;97600;-65
2021/07/04 06:11:57;;;;;;;;;23.00;22.00;;;;;22.89;52.27;98427.28;6122106;28;99207;-67
2021/07/04 06:15:00;;;;;;;;;22.25;21.00;;;;;23.25;52.22;98473.13;6162565;28;97499;-66
2021/07/04 06:18:06;;;;;;;;;24.60;23.00;;;;;23.31;51.86;98469.91;6151977;28;97940;-67
2021/07/04 06:21:09;;;;;;;;;25.00;23.00;;;;;23.36;51.90;98479.97;6141404;28;97196;-67
2021/07/04 06:24:12;;;;;;;;;22.60;22.00;;;;;23.50;51.85;98471.69;6143765;28;97836;-68
2021/07/04 06:27:16;;;;;;;;;23.00;22.60;;;;;23.66;51.47;98470.13;6118292;28;97178;-66
2021/07/04 06:30:20;;;;;;;;;25.50;24.50;;;;;23.86;51.22;98477.00;6152231;28;98474;-66
2021/07/04 06:33:24;;;;;;;;;25.75;24.50;;;;;24.06;51.01;98482.75;6124129;28;97764;-66
2021/07/04 06:36:28;;;;;;;;;22.00;21.00;;;;;24.24;50.28;98480.09;6135124;28;96601;-66
2021/07/04 06:39:31;;;;;;;;;22.33;21.00;;;;;24.44;49.76;98482.22;6155683;28;97567;-66
2021/07/04 06:42:35;;;;;;;;;23.60;22.60;;;;;24.63;49.70;98477.22;6160215;28;96864;-66
2021/07/04 06:45:38;;;;;;;;;24.00;22.00;;;;;24.79;49.28;98483.88;6161279;28;97622;-66
2021/07/04 06:48:43;;;;;;;;;21.60;20.00;;;;;24.87;48.97;98477.59;6159974;28;97467;-65
2021/07/04 06:51:46;;;;;;;;;21.00;20.75;;;;;25.00;48.23;98482.13;6147756;28;97577;-66
2021/07/04 06:54:49;;;;;;;;;20.60;18.00;;;;;25.08;48.03;98487.94;6147943;28;97552;-64
2021/07/04 06:57:53;;;;;;;;;22.25;21.25;;;;;25.18;47.91;98480.13;6156705;28;97447;-65
2021/07/04 07:00:58;;;;;;;;;20.60;19.80;;;;;25.33;48.01;98479.63;6156333;28;96917;-65
2021/07/04 07:04:03;;;;;;;;;24.00;21.00;;;;;25.41;47.32;98472.47;6161529;28;97426;-65
2021/07/04 07:07:07;;;;;;;;;22.00;21.00;;;;;25.42;47.12;98472.13;6151716;28;96659;-65
2021/07/04 07:10:12;;;;;;;;;21.25;18.25;;;;;25.57;46.69;98484.63;6161949;28;96700;-64
2021/07/04 07:13:19;;;;;;;;;21.00;19.25;;;;;25.75;46.34;98477.09;6161068;28;97525;-65
2021/07/04 07:16:24;;;;;;;;;18.75;17.50;;;;;25.98;46.20;98485.94;6145592;28;97429;-65
2021/07/04 07:19:28;;;;;;;;;20.00;18.00;;;;;26.19;45.26;98484.03;6163743;28;97462;-65
2021/07/04 07:22:32;;;;;;;;;20.00;18.00;;;;;26.54;46.19;98488.22;6144829;28;97282;-64
2021/07/04 07:25:35;;;;;;;;;17.67;16.00;;;;;26.80;45.84;98476.97;6161339;28;97028;-64
2021/07/04 07:28:38;;;;;;;;;15.60;14.60;;;;;27.03;43.47;98478.25;6162545;28;98347;-65
2021/07/04 07:31:46;;;;;;;;;19.00;18.75;;;;;27.20;42.40;98482.84;6145915;28;97762;-65
2021/07/04 07:34:51;;;;;;;;;18.25;16.00;;;;;27.54;42.86;98482.50;6144070;28;96709;-64
2021/07/04 07:37:56;;;;;;;;;18.00;16.00;;;;;27.76;41.46;98484.03;6144190;28;98200;-65
2021/07/04 07:40:59;;;;;;;;;19.75;18.00;;;;;27.94;41.12;98484.63;6140690;28;98563;-65
2021/07/04 07:44:04;;;;;;;;;16.60;15.00;;;;;28.27;41.66;98487.31;6142086;28;97440;-65
2021/07/04 07:47:08;;;;;;;;;16.00;16.00;;;;;28.60;38.87;98476.06;6162291;28;99593;-64
2021/07/04 07:50:13;;;;;;;;;15.00;14.20;;;;;28.67;38.86;98473.50;6163890;28;96689;-65
2021/07/04 07:53:17;;;;;;;;;15.75;15.00;;;;;28.83;38.60;98469.66;6145733;28;97366;-65
2021/07/04 07:56:20;;;;;;;;;18.00;17.00;;;;;28.99;37.74;98452.25;6144462;28;96767;-65
2021/07/04 07:59:24;;;;;;;;;16.40;13.80;;;;;29.25;38.43;98452.63;6145392;28;96579;-66
2021/07/04 08:02:28;;;;;;;;;17.00;16.80;;;;;29.35;37.28;98462.44;6144391;28;97296;-65
2021/07/04 08:05:32;;;;;;;;;15.00;14.00;;;;;29.69;36.49;98456.19;6163336;28;96661;-65
2021/07/04 08:08:38;;;;;;;;;16.80;16.20;;;;;29.70;36.44;98458.63;6144317;28;96659;-64
2021/07/04 08:11:41;;;;;;;;;17.80;15.60;;;;;29.90;36.35;98456.78;6159598;28;97612;-65
2021/07/04 08:14:44;;;;;;;;;15.25;14.50;;;;;30.23;36.16;98464.72;6131728;28;96731;-64
2021/07/04 08:17:48;;;;;;;;;16.00;14.00;;;;;30.53;35.23;98449.16;6162214;28;97557;-65
2021/07/04 08:20:54;;;;;;;;;15.00;13.80;;;;;30.53;34.43;98451.94;6163675;28;97280;-64
2021/07/04 08:23:57;;;;;;;;;13.75;13.75;;;;;30.30;34.45;98439.06;6124766;28;97878;-65
2021/07/04 08:27:01;;;;;;;;;14.00;13.40;;;;;30.23;34.21;98450.00;6162852;28;97237;-64
2021/07/04 08:30:05;;;;;;;;;14.60;14.60;;;;;30.35;33.07;98449.91;6118971;28;98499;-65
2021/07/04 08:33:08;;;;;;;;;16.00;13.80;;;;;30.48;34.10;98443.88;6158324;28;96795;-65
2021/07/04 08:36:12;;;;;;;;;16.00;15.00;;;;;30.36;34.53;98452.28;6134140;28;97148;-65
2021/07/04 08:39:15;;;;;;;;;12.75;12.75;;;;;30.50;34.47;98443.50;6145575;28;97506;-65
2021/07/04 08:42:19;;;;;;;;;11.80;11.00;;;;;30.62;32.78;98448.94;6155393;28;97300;-65
2021/07/04 08:45:22;;;;;;;;;12.00;11.00;;;;;30.92;32.90;98447.19;6159673;28;97180;-65
2021/07/04 08:48:26;;;;;;;;;14.00;12.40;;;;;31.16;32.75;98439.72;6160640;28;96606;-67
2021/07/04 08:51:31;;;;;;;;;13.00;12.00;;;;;31.47;31.79;98433.16;6162742;28;97430;-64
2021/07/04 08:54:34;;;;;;;;;13.00;13.00;;;;;31.77;32.19;98434.09;6144276;28;97561;-65
2021/07/04 08:57:37;;;;;;;;;15.40;14.80;;;;;31.88;31.35;98429.50;6115887;28;98426;-64
2021/07/04 09:00:41;;;;;;;;;13.00;12.00;;;;;31.99;31.15;98424.91;6160874;28;96805;-65
2021/07/04 09:03:47;;;;;;;;;14.00;13.00;;;;;32.11;31.08;98424.72;6160574;28;96422;-66
2021/07/04 09:06:53;;;;;;;;;13.00;12.00;;;;;32.18;31.37;98424.84;6158518;28;97468;-64
2021/07/04 09:09:58;;;;;;;;;13.50;13.50;;;;;32.22;30.98;98422.91;6160912;28;96959;-65
2021/07/04 09:13:04;;;;;;;;;12.00;12.00;;;;;32.12;30.63;98436.69;6142702;28;98472;-67
2021/07/04 09:16:09;;;;;;;;;12.60;11.80;;;;;32.06;30.02;98429.81;6158063;28;97443;-64
2021/07/04 09:19:14;;;;;;;;;12.80;11.80;;;;;32.21;29.91;98431.66;6141222;28;98660;-64
2021/07/04 09:22:27;;;;;;;;;12.00;12.00;;;;;32.39;29.41;98426.34;6143261;28;96909;-64
2021/07/04 09:25:32;;;;;;;;;11.00;11.00;;;;;32.42;29.22;98420.81;6154367;28;97435;-64
2021/07/04 09:28:43;;;;;;;;;13.00;11.00;;;;;32.55;29.27;98413.81;6142390;28;99521;-65
2021/07/04 09:31:47;;;;;;;;;12.33;12.00;;;;;32.55;30.00;98419.38;6137698;28;97106;-65
2021/07/04 09:35:00;;;;;;;;;13.00;12.00;;;;;32.58;29.81;98404.69;6140717;28;96699;-65
2021/07/04 09:38:13;;;;;;;;;11.60;11.00;;;;;32.67;29.70;98371.75;6162875;28;97434;-65
2021/07/04 09:41:16;;;;;;;;;14.00;14.00;;;;;33.05;28.26;98408.88;6160582;28;98832;-65
2021/07/04 09:44:28;;;;;;;;;12.00;11.40;;;;;33.00;28.51;98401.63;6157390;28;97079;-65
2021/07/04 09:47:31;;;;;;;;;10.00;9.00;;;;;32.93;28.97;98401.56;6144093;28;96761;-64
2021/07/04 09:50:40;;;;;;;;;11.60;11.60;;;;;32.90;28.71;98398.72;6161182;28;96664;-65
2021/07/04 09:53:50;;;;;;;;;12.40;11.40;;;;;32.75;28.03;98394.13;6143791;28;96650;-66
2021/07/04 09:56:56;;;;;;;;;13.40;11.00;;;;;32.66;29.30;98398.03;6144745;28;97074;-66
2021/07/04 10:00:17;;;;;;;;;13.00;13.00;;;;;32.84;28.18;98381.50;6143417;28;98612;-66
2021/07/04 10:03:21;;;;;;;;;10.40;10.40;;;;;33.01;28.30;98380.91;6157361;28;97443;-65
2021/07/04 10:06:24;;;;;;;;;11.75;11.75;;;;;33.09;29.18;98378.97;6139444;28;98055;-67
2021/07/04 10:09:29;;;;;;;;;11.00;10.00;;;;;33.03;28.51;98377.75;6162311;28;97431;-65
2021/07/04 10:12:33;;;;;;;;;15.40;14.00;;;;;33.24;28.95;98363.19;6142723;28;97051;-66
2021/07/04 10:15:36;;;;;;;;;12.00;11.00;;;;;33.32;28.63;98378.88;6153339;28;97832;-66
2021/07/04 10:18:42;;;;;;;;;12.00;11.00;;;;;33.56;28.52;98372.69;6156889;28;98020;-66
2021/07/04 10:21:47;;;;;;;;;12.00;11.00;;;;;33.82;27.90;98374.50;6144164;28;97616;-67
2021/07/04 10:24:52;;;;;;;;;9.00;9.00;;;;;33.75;26.92;98366.88;6156764;28;98682;-65
2021/07/04 10:27:56;;;;;;;;;12.00;11.75;;;;;33.39;27.03;98362.94;6161288;28;97429;-66
2021/07/04 10:31:02;;;;;;;;;12.40;11.40;;;;;33.16;28.09;98361.53;6139233;28;97729;-66
2021/07/04 10:34:07;;;;;;;;;12.00;12.00;;;;;32.87;27.54;98346.44;6148982;28;96871;-65
2021/07/04 10:37:12;;;;;;;;;43.40;36.00;;;;;32.95;28.11;98348.13;6155763;28;97402;-65
2021/07/04 10:40:19;;;;;;;;;16.50;16.50;;;;;33.17;27.54;98338.81;6147886;28;96862;-65
2021/07/04 10:43:51;;;;;;;;;17.80;17.00;;;;;33.43;27.80;98337.81;6156873;28;96728;-67
2021/07/04 10:47:07;;;;;;;;;11.00;11.00;;;;;33.50;27.07;98340.69;6163332;28;96946;-66
2021/07/04 10:50:13;;;;;;;;;11.00;10.00;;;;;33.12;27.75;98327.97;6143961;28;96648;-64
2021/07/04 10:53:45;;;;;;;;;10.00;9.00;;;;;33.41;27.50;98326.25;6159623;28;98642;-66
2021/07/04 10:57:04;;;;;;;;;10.00;9.00;;;;;33.35;27.05;98336.97;6141362;28;98142;-66
2021/07/04 11:00:19;;;;;;;;;10.75;9.75;;;;;33.59;26.81;98327.19;6155022;28;96915;-65
2021/07/04 11:03:30;;;;;;;;;10.00;9.00;;;;;33.55;25.64;98317.19;6140529;28;97031;-65
2021/07/04 11:06:54;;;;;;;;;9.50;9.00;;;;;33.57;25.91;98306.41;6143686;28;98037;-63
2021/07/04 11:10:21;;;;;;;;;9.00;8.00;;;;;33.73;26.77;98318.13;6141569;28;97584;-63
2021/07/04 11:13:42;;;;;;;;;10.40;10.00;;;;;33.54;26.43;98313.56;6161200;28;97505;-66
2021/07/04 11:17:03;;;;;;;;;10.20;9.80;;;;;33.40;27.29;98319.06;6144987;28;98147;-65
2021/07/04 11:20:07;;;;;;;;;9.00;9.00;;;;;33.37;26.59;98314.25;6143604;28;96776;-65
2021/07/04 11:23:12;;;;;;;;;11.00;11.00;;;;;33.58;26.79;98314.41;6159331;28;97614;-66
2021/07/04 11:26:18;;;;;;;;;10.00;9.00;;;;;33.78;26.15;98318.56;6138152;28;96731;-63
2021/07/04 11:29:22;;;;;;;;;9.00;9.00;;;;;34.10;25.70;98312.38;6150706;28;97397;-63
2021/07/04 11:32:26;;;;;;;;;9.00;9.00;;;;;34.39;25.29;98307.75;6161362;28;97461;-63
2021/07/04 11:35:41;;;;;;;;;7.60;6.00;;;;;34.28;25.97;98302.09;6151910;28;97677;-62
2021/07/04 11:38:47;;;;;;;;;9.60;9.00;;;;;34.05;25.72;98296.78;6157054;28;97580;-62
2021/07/04 11:41:53;;;;;;;;;10.00;9.80;;;;;33.98;25.68;98293.94;6160595;28;97193;-62
2021/07/04 11:44:58;;;;;;;;;9.40;8.40;;;;;34.24;25.80;98292.91;6163939;28;97522;-64
2021/07/04 11:48:01;;;;;;;;;10.00;10.00;;;;;34.45;25.36;98300.59;6159347;28;97470;-63
2021/07/04 11:51:06;;;;;;;;;10.00;9.00;;;;;34.27;25.29;98295.72;6143558;28;98183;-63
2021/07/04 11:54:16;;;;;;;;;9.40;9.00;;;;;34.10;24.71;98290.81;6141127;28;96814;-63
2021/07/04 11:57:31;;;;;;;;;9.00;9.00;;;;;34.05;25.35;98298.78;6160847;28;97263;-63
2021/07/04 12:00:36;;;;;;;;;9.00;8.00;;;;;34.08;25.20;98290.38;6161283;28;96686;-63
2021/07/04 12:03:40;;;;;;;;;10.25;8.75;;;;;33.95;25.73;98289.13;6164323;28;98047;-64
2021/07/04 12:06:55;;;;;;;;;9.00;8.00;;;;;34.12;25.09;98285.59;6163959;28;96425;-64
2021/07/04 12:09:58;;;;;;;;;10.60;10.00;;;;;33.94;24.92;98279.94;6163825;28;96737;-63
2021/07/04 12:13:02;;;;;;;;;10.40;10.40;;;;;33.53;25.51;98281.22;6161770;28;96625;-60
2021/07/04 12:16:08;;;;;;;;;11.00;10.00;;;;;33.54;26.26;98280.03;6130416;28;97491;-61
2021/07/04 12:19:25;;;;;;;;;10.00;9.60;;;;;33.51;25.87;98276.03;6126884;28;98102;-61
2021/07/04 12:22:30;;;;;;;;;11.75;11.00;;;;;33.48;26.25;98281.56;6157610;28;96800;-61
2021/07/04 12:25:38;;;;;;;;;9.00;8.75;;;;;33.45;26.08;98282.38;6162569;28;97765;-62
2021/07/04 12:28:41;;;;;;;;;9.00;9.00;;;;;33.24;26.42;98282.19;6151504;28;97748;-62
2021/07/04 12:31:46;;;;;;;;;7.00;6.80;;;;;33.47;26.39;98286.41;6160175;28;97021;-62
2021/07/04 12:34:49;;;;;;;;;9.60;8.60;;;;;33.72;25.15;98271.81;6144848;28;97246;-64
2021/07/04 12:37:55;;;;;;;;;10.60;8.00;;;;;34.04;26.60;98270.00;6163050;28;97910;-61
2021/07/04 12:41:00;;;;;;;;;11.00;10.00;;;;;34.32;26.36;98264.53;6161388;28;97249;-64
2021/07/04 12:44:14;;;;;;;;;12.75;12.00;;;;;34.66;24.83;98265.06;6160862;28;97404;-63
2021/07/04 12:47:21;;;;;;;;;8.60;8.00;;;;;34.70;24.10;98262.28;6161099;28;97836;-64
2021/07/04 12:50:24;;;;;;;;;10.00;10.00;;;;;34.72;23.64;98248.69;6151998;28;98668;-61
2021/07/04 12:53:36;;;;;;;;;10.40;10.00;;;;;34.71;24.39;98245.09;6155462;28;97045;-62
2021/07/04 12:56:44;;;;;;;;;9.00;8.75;;;;;34.67;24.39;98254.66;6155319;28;97670;-62
2021/07/04 12:59:47;;;;;;;;;9.40;8.40;;;;;34.82;24.83;98247.13;6135830;28;97760;-61
2021/07/04 13:02:52;;;;;;;;;9.50;9.00;;;;;34.98;25.41;98245.53;6156859;28;96664;-62
2021/07/04 13:05:55;;;;;;;;;10.00;10.00;;;;;35.08;23.94;98232.75;6148741;28;97762;-63
2021/07/04 13:08:59;;;;;;;;;10.60;10.00;;;;;35.08;23.97;98246.75;6134638;28;97047;-61
2021/07/04 13:12:09;;;;;;;;;32.80;31.00;;;;;35.17;23.43;98235.97;6153960;28;97439;-62
2021/07/04 13:15:16;;;;;;;;;10.33;10.33;;;;;35.25;23.61;98250.78;6135261;28;99352;-62
2021/07/04 13:18:28;;;;;;;;;10.00;10.00;;;;;35.20;22.79;98238.75;6156310;28;98385;-61
2021/07/04 13:21:35;;;;;;;;;10.00;9.00;;;;;35.20;23.54;98235.16;6161529;28;96705;-62
2021/07/04 13:24:45;;;;;;;;;10.60;10.40;;;;;35.26;23.53;98221.56;6153423;28;97611;-63
2021/07/04 13:27:59;;;;;;;;;10.40;9.00;;;;;35.34;22.97;98228.75;6151920;28;96724;-63
2021/07/04 13:31:04;;;;;;;;;10.60;10.00;;;;;35.31;23.64;98223.94;6161324;28;98095;-63
2021/07/04 13:34:21;;;;;;;;;10.00;10.00;;;;;35.25;24.02;98223.53;6118080;28;99566;-63
2021/07/04 13:37:27;;;;;;;;;9.60;9.40;;;;;35.25;22.77;98219.94;6156068;28;97929;-63
2021/07/04 13:40:31;;;;;;;;;10.00;10.00;;;;;35.30;23.97;98216.75;6138406;28;96901;-63
2021/07/04 13:43:34;;;;;;;;;11.67;11.00;;;;;35.40;23.87;98213.13;6157135;28;97427;-63
2021/07/04 13:46:38;;;;;;;;;18.50;17.50;;;;;35.24;23.21;98204.34;6137263;28;96779;-63
2021/07/04 13:49:43;;;;;;;;;11.40;10.40;;;;;35.15;23.33;98204.72;6162210;28;97456;-63
2021/07/04 13:52:46;;;;;;;;;9.25;9.00;;;;;35.02;24.14;98209.94;6139303;28;96829;-62
2021/07/04 13:55:51;;;;;;;;;9.25;9.00;;;;;35.04;24.25;98204.69;6162257;28;96945;-63
2021/07/04 13:58:55;;;;;;;;;11.00;10.00;;;;;35.08;24.85;98201.94;6154364;28;97087;-62
2021/07/04 14:01:58;;;;;;;;;12.00;11.00;;;;;35.04;24.02;98199.09;6158749;28;96771;-63
2021/07/04 14:05:02;;;;;;;;;10.00;9.00;;;;;35.08;25.37;98196.31;6161317;28;97525;-63
2021/07/04 14:08:07;;;;;;;;;11.00;11.00;;;;;35.05;23.54;98195.09;6143151;28;97822;-62
2021/07/04 14:11:10;;;;;;;;;11.00;10.80;;;;;35.12;24.71;98191.50;6150659;28;96797;-63
2021/07/04 14:14:13;;;;;;;;;13.00;12.00;;;;;35.18;24.49;98193.56;6151694;28;96861;-62
2021/07/04 14:17:17;;;;;;;;;10.00;10.00;;;;;35.23;23.79;98188.75;6157591;28;97368;-63